Time;durP1;ratioP1;P1;durP2;ratioP2;P2;SDS_P1;SDS_P2;PMS_P1;PMS_P2;Temp;Humidity;BMP_temperature;BMP_pressure;BME280_temperature;BME280_humidity;BME280_pressure;Samples;Min_cycle;Max_cycle;Signal;HPM_P1;HPM_P2
2023/12/16 00:00:30;;;;;;;12.95;6.40;;;;;;;;;;5065077;28;20052;-60
2023/12/16 00:03:16;;;;;;;15.27;6.00;;;;;;;;;;5068681;28;20153;-61
2023/12/16 00:05:42;;;;;;;15.02;6.38;;;;;;;;;;5069336;28;20045;-60
2023/12/16 00:08:08;;;;;;;20.25;5.95;;;;;;;;;;5084662;28;20048;-61
2023/12/16 00:10:35;;;;;;;19.92;7.72;;;;;;;;;;5073898;28;20064;-61
2023/12/16 00:13:01;;;;;;;21.30;7.65;;;;;;;;;;5062388;28;20045;-61
2023/12/16 00:15:27;;;;;;;22.75;7.32;;;;;;;;;;5067572;28;20045;-61
2023/12/16 00:17:53;;;;;;;20.10;7.68;;;;;;;;;;5075294;28;20124;-61
2023/12/16 00:20:19;;;;;;;18.75;7.28;;;;;;;;;;5067616;28;20052;-65
2023/12/16 00:22:47;;;;;;;18.92;7.85;;;;;;;;;;5063043;28;20049;-60
2023/12/16 00:25:14;;;;;;;16.98;7.47;;;;;;;;;;5063433;28;20422;-62
2023/12/16 00:27:40;;;;;;;24.10;8.55;;;;;;;;;;5063239;28;20080;-60
2023/12/16 00:30:08;;;;;;;22.48;7.72;;;;;;;;;;5067181;28;20561;-61
2023/12/16 00:32:34;;;;;;;21.52;8.48;;;;;;;;;;5058224;28;20056;-59
2023/12/16 00:35:01;;;;;;;21.30;7.80;;;;;;;;;;5061809;28;20055;-63
2023/12/16 00:37:30;;;;;;;23.70;7.07;;;;;;;;;;5059803;28;20053;-59
2023/12/16 00:39:58;;;;;;;18.55;7.10;;;;;;;;;;5064142;28;20388;-60
2023/12/16 00:42:25;;;;;;;19.20;6.32;;;;;;;;;;5061014;28;20088;-59
2023/12/16 00:44:50;;;;;;;19.75;7.38;;;;;;;;;;5067022;28;20102;-61
2023/12/16 00:47:17;;;;;;;16.35;6.95;;;;;;;;;;5069690;28;20468;-59
2023/12/16 00:49:42;;;;;;;17.83;6.68;;;;;;;;;;5072032;28;20260;-59
2023/12/16 00:52:09;;;;;;;13.45;5.97;;;;;;;;;;5070377;28;20045;-60
2023/12/16 00:54:35;;;;;;;13.05;5.82;;;;;;;;;;5082044;28;20040;-64
2023/12/16 00:57:01;;;;;;;15.18;5.57;;;;;;;;;;5093209;28;20291;-59
2023/12/16 00:59:28;;;;;;;11.95;4.43;;;;;;;;;;5061122;28;20193;-62
2023/12/16 01:01:55;;;;;;;9.63;3.78;;;;;;;;;;5074293;28;20068;-60
2023/12/16 01:04:21;;;;;;;7.00;3.20;;;;;;;;;;5082287;28;20067;-60
2023/12/16 01:06:48;;;;;;;4.72;2.35;;;;;;;;;;5071855;28;20934;-61
2023/12/16 01:09:15;;;;;;;6.43;2.45;;;;;;;;;;5072579;28;20225;-62
2023/12/16 01:11:42;;;;;;;6.50;2.75;;;;;;;;;;5070140;28;20052;-61
2023/12/16 01:14:09;;;;;;;6.28;2.85;;;;;;;;;;5076238;28;20305;-60
2023/12/16 01:16:35;;;;;;;7.18;3.00;;;;;;;;;;5072536;28;20049;-61
2023/12/16 01:19:01;;;;;;;8.25;2.88;;;;;;;;;;5071224;28;20298;-58
2023/12/16 01:21:28;;;;;;;8.40;2.53;;;;;;;;;;5067181;28;20044;-61
2023/12/16 01:23:54;;;;;;;7.55;2.50;;;;;;;;;;5062229;28;20501;-60
2023/12/16 01:26:20;;;;;;;8.00;2.78;;;;;;;;;;5072322;28;20043;-59
2023/12/16 01:28:46;;;;;;;7.88;2.55;;;;;;;;;;5090339;28;20443;-63
2023/12/16 01:31:12;;;;;;;4.75;2.30;;;;;;;;;;5077193;28;20715;-61
2023/12/16 01:33:39;;;;;;;5.28;2.10;;;;;;;;;;5062468;28;20060;-60
2023/12/16 01:36:07;;;;;;;4.93;1.83;;;;;;;;;;5068248;28;20041;-60
2023/12/16 01:38:34;;;;;;;4.43;2.10;;;;;;;;;;5059236;28;20033;-61
2023/12/16 01:41:03;;;;;;;7.90;3.60;;;;;;;;;;5071883;28;20051;-59
2023/12/16 01:43:29;;;;;;;5.10;2.38;;;;;;;;;;5073475;28;20052;-59
2023/12/16 01:46:01;;;;;;;6.90;2.72;;;;;;;;;;5068100;28;20040;-60
2023/12/16 01:48:28;;;;;;;9.73;3.08;;;;;;;;;;5072272;28;20063;-58
2023/12/16 01:50:55;;;;;;;12.38;2.80;;;;;;;;;;5066831;28;20472;-58
2023/12/16 01:53:21;;;;;;;10.48;2.30;;;;;;;;;;5067751;28;20051;-63
2023/12/16 01:55:50;;;;;;;4.93;2.10;;;;;;;;;;5066434;28;20577;-61
2023/12/16 01:58:16;;;;;;;6.70;2.33;;;;;;;;;;5060777;28;20053;-58
2023/12/16 02:00:45;;;;;;;5.78;2.67;;;;;;;;;;5059952;28;20056;-62
2023/12/16 02:03:16;;;;;;;7.90;2.67;;;;;;;;;;5060047;28;20041;-60
2023/12/16 02:05:43;;;;;;;11.82;3.05;;;;;;;;;;5067181;28;20253;-60
2023/12/16 02:08:09;;;;;;;8.18;2.83;;;;;;;;;;5066698;28;20044;-59
2023/12/16 02:10:44;;;;;;;10.63;3.75;;;;;;;;;;5064961;28;20058;-62
2023/12/16 02:13:10;;;;;;;13.82;3.30;;;;;;;;;;5065687;28;20063;-59
2023/12/16 02:15:37;;;;;;;8.95;3.50;;;;;;;;;;5098675;27;20071;-59
2023/12/16 02:18:03;;;;;;;8.93;3.50;;;;;;;;;;5068131;28;20487;-60
2023/12/16 02:20:30;;;;;;;8.23;2.75;;;;;;;;;;5064339;28;20056;-58
2023/12/16 02:22:57;;;;;;;6.53;2.60;;;;;;;;;;5063986;28;20060;-60
2023/12/16 02:25:23;;;;;;;5.05;2.30;;;;;;;;;;5066481;28;20041;-58
2023/12/16 02:27:49;;;;;;;6.03;2.13;;;;;;;;;;5068494;28;20262;-61
2023/12/16 02:30:15;;;;;;;5.25;2.08;;;;;;;;;;5064915;28;20759;-59
2023/12/16 02:32:42;;;;;;;2.97;1.45;;;;;;;;;;5062090;28;20132;-58
2023/12/16 02:35:09;;;;;;;3.97;1.58;;;;;;;;;;5065319;28;20466;-60
2023/12/16 02:37:34;;;;;;;3.75;1.50;;;;;;;;;;5064160;28;20041;-60
2023/12/16 02:40:02;;;;;;;3.95;1.65;;;;;;;;;;5073137;28;20529;-60
2023/12/16 02:42:28;;;;;;;1.98;1.23;;;;;;;;;;5068132;28;20040;-60
2023/12/16 02:44:54;;;;;;;3.30;1.00;;;;;;;;;;5083186;28;20062;-65
2023/12/16 02:47:20;;;;;;;2.75;1.13;;;;;;;;;;5067369;28;20044;-59
2023/12/16 02:49:47;;;;;;;2.95;1.20;;;;;;;;;;5064609;28;20060;-60
2023/12/16 02:52:13;;;;;;;3.70;1.20;;;;;;;;;;5077443;28;20203;-60
2023/12/16 02:54:39;;;;;;;3.40;0.90;;;;;;;;;;5083539;28;20510;-60
2023/12/16 02:57:05;;;;;;;1.38;1.00;;;;;;;;;;5077804;28;20052;-59
2023/12/16 02:59:32;;;;;;;3.83;1.10;;;;;;;;;;5074053;28;20059;-61
2023/12/16 03:01:58;;;;;;;1.70;1.00;;;;;;;;;;5074694;28;20059;-59
2023/12/16 03:04:24;;;;;;;4.63;1.30;;;;;;;;;;5085218;28;20044;-60
2023/12/16 03:06:50;;;;;;;1.95;0.98;;;;;;;;;;5067322;28;20050;-60
2023/12/16 03:09:16;;;;;;;2.38;1.10;;;;;;;;;;5061602;28;20339;-62
2023/12/16 03:11:43;;;;;;;2.85;1.00;;;;;;;;;;5075129;28;20078;-60
2023/12/16 03:14:10;;;;;;;1.27;0.95;;;;;;;;;;5068118;28;20043;-61
2023/12/16 03:16:35;;;;;;;3.35;1.10;;;;;;;;;;5070912;28;20459;-58
2023/12/16 03:19:03;;;;;;;3.30;1.10;;;;;;;;;;5083748;28;20480;-59
2023/12/16 03:21:30;;;;;;;3.35;1.00;;;;;;;;;;5065546;28;20449;-60
2023/12/16 03:23:56;;;;;;;1.30;1.00;;;;;;;;;;5065991;28;20045;-59
2023/12/16 03:26:22;;;;;;;1.75;1.27;;;;;;;;;;5058037;28;20106;-61
2023/12/16 03:28:48;;;;;;;1.58;0.90;;;;;;;;;;5067210;28;20078;-60
2023/12/16 03:31:16;;;;;;;2.78;1.10;;;;;;;;;;5069193;28;20382;-59
2023/12/16 03:33:43;;;;;;;2.63;1.00;;;;;;;;;;5069808;28;20134;-58
2023/12/16 03:36:09;;;;;;;1.50;0.93;;;;;;;;;;5066792;28;20133;-58
2023/12/16 03:38:35;;;;;;;1.55;0.90;;;;;;;;;;5073330;28;20451;-58
2023/12/16 03:41:01;;;;;;;3.20;1.15;;;;;;;;;;5064434;28;20041;-61
2023/12/16 03:43:28;;;;;;;2.08;1.05;;;;;;;;;;5074765;28;20048;-59
2023/12/16 03:45:54;;;;;;;2.13;1.10;;;;;;;;;;5069382;28;20041;-62
2023/12/16 03:48:20;;;;;;;2.78;0.90;;;;;;;;;;5068148;28;20040;-60
2023/12/16 03:50:49;;;;;;;1.70;1.00;;;;;;;;;;5070575;28;20072;-58
2023/12/16 03:53:18;;;;;;;2.42;0.90;;;;;;;;;;5072025;28;20529;-59
2023/12/16 03:55:46;;;;;;;1.40;0.93;;;;;;;;;;5084755;28;20130;-58
2023/12/16 03:58:13;;;;;;;1.63;0.90;;;;;;;;;;5056702;28;20048;-64
2023/12/16 04:00:39;;;;;;;1.48;1.00;;;;;;;;;;5063920;28;20566;-57
2023/12/16 04:03:05;;;;;;;2.25;1.10;;;;;;;;;;5065192;28;20051;-57
2023/12/16 04:05:31;;;;;;;2.15;0.80;;;;;;;;;;5089805;28;20036;-62
2023/12/16 04:07:57;;;;;;;1.75;1.08;;;;;;;;;;5066899;28;20033;-59
2023/12/16 04:10:23;;;;;;;1.67;1.05;;;;;;;;;;5070395;28;20040;-58
2023/12/16 04:12:49;;;;;;;3.70;1.05;;;;;;;;;;5075915;28;20044;-58
2023/12/16 04:15:16;;;;;;;2.75;1.17;;;;;;;;;;5065656;28;20056;-58
2023/12/16 04:17:42;;;;;;;1.33;0.90;;;;;;;;;;5068866;28;20292;-60
2023/12/16 04:20:11;;;;;;;1.17;0.90;;;;;;;;;;5063960;28;20457;-59
2023/12/16 04:22:37;;;;;;;2.20;1.00;;;;;;;;;;5068790;28;20060;-58
2023/12/16 04:25:10;;;;;;;3.85;1.38;;;;;;;;;;5059650;28;20386;-58
2023/12/16 04:27:37;;;;;;;4.10;1.20;;;;;;;;;;5070783;28;20124;-58
2023/12/16 04:30:03;;;;;;;2.53;0.93;;;;;;;;;;5069032;28;20048;-58
2023/12/16 04:32:30;;;;;;;2.63;1.17;;;;;;;;;;5058828;28;20091;-58
2023/12/16 04:34:56;;;;;;;2.90;1.27;;;;;;;;;;5064609;28;20044;-59
2023/12/16 04:37:24;;;;;;;4.75;1.30;;;;;;;;;;5064166;28;20136;-60
2023/12/16 04:39:50;;;;;;;4.03;1.90;;;;;;;;;;5065522;28;20178;-58
2023/12/16 04:42:16;;;;;;;4.60;1.38;;;;;;;;;;5069663;28;20057;-59
2023/12/16 04:44:42;;;;;;;3.92;1.20;;;;;;;;;;5073072;28;20069;-60
2023/12/16 04:47:08;;;;;;;3.53;1.40;;;;;;;;;;5069172;28;20059;-59
2023/12/16 04:49:34;;;;;;;3.88;1.20;;;;;;;;;;5073792;28;20416;-59
2023/12/16 04:52:02;;;;;;;1.70;1.40;;;;;;;;;;5069835;28;20048;-59
2023/12/16 04:54:29;;;;;;;4.70;1.42;;;;;;;;;;5070665;28;20047;-58
2023/12/16 04:56:55;;;;;;;4.60;1.17;;;;;;;;;;5068950;28;20058;-60
2023/12/16 04:59:22;;;;;;;2.22;1.25;;;;;;;;;;5068727;28;20055;-57
2023/12/16 05:01:51;;;;;;;1.70;1.20;;;;;;;;;;5067803;28;20495;-60
2023/12/16 05:04:16;;;;;;;2.90;0.90;;;;;;;;;;5075198;28;20283;-59
2023/12/16 05:06:45;;;;;;;4.00;1.10;;;;;;;;;;5068072;28;20044;-58
2023/12/16 05:09:12;;;;;;;1.52;1.00;;;;;;;;;;5072052;28;20037;-61
2023/12/16 05:11:38;;;;;;;2.38;1.40;;;;;;;;;;5069988;28;20071;-63
2023/12/16 05:14:04;;;;;;;2.95;1.13;;;;;;;;;;5060775;28;20040;-59
2023/12/16 05:16:32;;;;;;;3.65;0.95;;;;;;;;;;5067632;28;20048;-61
2023/12/16 05:19:03;;;;;;;2.58;0.93;;;;;;;;;;5073136;28;20044;-58
2023/12/16 05:21:30;;;;;;;2.90;1.10;;;;;;;;;;5068397;28;20060;-58
2023/12/16 05:23:56;;;;;;;1.48;1.10;;;;;;;;;;5065057;28;20087;-59
2023/12/16 05:26:23;;;;;;;1.27;0.88;;;;;;;;;;5051822;28;20081;-58
2023/12/16 05:28:52;;;;;;;4.78;1.02;;;;;;;;;;5068581;28;20118;-59
2023/12/16 05:31:18;;;;;;;1.40;0.70;;;;;;;;;;5062521;28;20052;-59
2023/12/16 05:33:44;;;;;;;1.77;1.00;;;;;;;;;;5069925;28;20045;-60
2023/12/16 05:36:10;;;;;;;1.35;0.73;;;;;;;;;;5068858;28;20052;-59
2023/12/16 05:38:37;;;;;;;2.40;1.10;;;;;;;;;;5069435;28;20044;-63
2023/12/16 05:41:05;;;;;;;3.88;0.95;;;;;;;;;;5062515;28;20076;-60
2023/12/16 05:43:36;;;;;;;2.38;0.75;;;;;;;;;;5070787;28;20056;-58
2023/12/16 05:46:02;;;;;;;4.22;0.98;;;;;;;;;;5068250;28;20386;-58
2023/12/16 05:48:31;;;;;;;1.48;0.80;;;;;;;;;;5084112;28;20087;-58
2023/12/16 05:50:57;;;;;;;1.58;0.93;;;;;;;;;;5067458;28;20052;-61
2023/12/16 05:53:23;;;;;;;1.02;0.88;;;;;;;;;;5073148;28;20040;-62
2023/12/16 05:55:54;;;;;;;5.20;1.10;;;;;;;;;;5093656;28;20573;-60
2023/12/16 05:58:20;;;;;;;3.22;1.25;;;;;;;;;;5068241;28;20488;-59
2023/12/16 06:00:46;;;;;;;1.75;0.80;;;;;;;;;;5050860;28;20267;-60
2023/12/16 06:03:12;;;;;;;4.68;0.90;;;;;;;;;;5061305;28;20275;-60
2023/12/16 06:05:41;;;;;;;1.45;0.90;;;;;;;;;;5101968;27;20056;-59
2023/12/16 06:08:08;;;;;;;0.80;0.80;;;;;;;;;;5068932;28;20250;-61
2023/12/16 06:10:38;;;;;;;1.40;1.00;;;;;;;;;;5071377;28;20488;-58
2023/12/16 06:13:04;;;;;;;2.25;1.05;;;;;;;;;;5069524;28;20070;-60
2023/12/16 06:15:30;;;;;;;2.88;1.00;;;;;;;;;;5066501;28;20078;-60
2023/12/16 06:17:57;;;;;;;2.72;0.90;;;;;;;;;;5069622;28;20089;-61
2023/12/16 06:20:26;;;;;;;2.17;1.20;;;;;;;;;;5065648;28;20044;-61
2023/12/16 06:22:53;;;;;;;2.60;1.17;;;;;;;;;;5068356;28;20705;-60
2023/12/16 06:25:19;;;;;;;2.38;0.93;;;;;;;;;;5067780;28;20462;-60
2023/12/16 06:27:45;;;;;;;2.20;1.50;;;;;;;;;;5064806;28;20045;-61
2023/12/16 06:30:12;;;;;;;1.30;0.75;;;;;;;;;;5068690;28;20044;-58
2023/12/16 06:32:39;;;;;;;4.85;1.42;;;;;;;;;;5065609;28;20056;-59
2023/12/16 06:35:08;;;;;;;1.58;0.82;;;;;;;;;;5065502;28;20045;-59
2023/12/16 06:37:35;;;;;;;2.10;0.90;;;;;;;;;;5076365;28;20091;-62
2023/12/16 06:40:02;;;;;;;1.38;0.75;;;;;;;;;;5057921;28;20059;-59
2023/12/16 06:42:28;;;;;;;2.95;0.93;;;;;;;;;;5100472;27;20040;-59
2023/12/16 06:44:54;;;;;;;1.88;0.90;;;;;;;;;;5069366;28;20044;-57
2023/12/16 06:47:20;;;;;;;4.15;1.00;;;;;;;;;;5061365;28;20530;-59
2023/12/16 06:49:46;;;;;;;2.17;1.00;;;;;;;;;;5074949;28;20052;-59
2023/12/16 06:52:15;;;;;;;1.55;0.88;;;;;;;;;;5073057;28;20036;-60
2023/12/16 06:54:44;;;;;;;4.13;1.33;;;;;;;;;;5067469;28;20049;-60
2023/12/16 06:57:12;;;;;;;2.78;1.02;;;;;;;;;;5068447;28;20169;-58
2023/12/16 06:59:39;;;;;;;2.35;1.10;;;;;;;;;;5066286;28;20053;-60
2023/12/16 07:02:07;;;;;;;3.50;1.33;;;;;;;;;;5064013;28;20451;-60
2023/12/16 07:04:36;;;;;;;7.45;1.67;;;;;;;;;;5067677;28;20059;-60
2023/12/16 07:07:02;;;;;;;2.67;0.88;;;;;;;;;;5066438;28;20041;-60
2023/12/16 07:09:31;;;;;;;2.08;1.00;;;;;;;;;;5060012;28;20052;-61
2023/12/16 07:11:57;;;;;;;6.13;1.20;;;;;;;;;;5042812;28;20040;-60
2023/12/16 07:14:23;;;;;;;8.25;1.38;;;;;;;;;;5065241;28;20059;-58
2023/12/16 07:16:55;;;;;;;2.60;1.30;;;;;;;;;;5065563;28;20041;-63
2023/12/16 07:19:21;;;;;;;6.32;1.30;;;;;;;;;;5062777;28;20105;-60
2023/12/16 07:21:48;;;;;;;3.08;1.67;;;;;;;;;;5056584;28;20052;-60
2023/12/16 07:24:26;;;;;;;7.45;1.98;;;;;;;;;;5056388;28;20060;-58
2023/12/16 07:26:59;;;;;;;3.80;2.30;;;;;;;;;;5059115;28;20131;-60
2023/12/16 07:29:53;;;;;;;12.00;2.42;;;;;;;;;;5045157;28;20131;-66
2023/12/16 07:32:28;;;;;;;6.22;3.40;;;;;;;;;;5051365;28;20570;-58
2023/12/16 07:34:56;;;;;;;5.13;2.50;;;;;;;;;;5067889;28;20079;-59
2023/12/16 07:37:43;;;;;;;4.85;2.10;;;;;;;;;;5079154;28;20052;-61
2023/12/16 07:40:27;;;;;;;4.70;2.38;;;;;;;;;;5048521;28;20060;-64
2023/12/16 07:42:57;;;;;;;6.65;2.63;;;;;;;;;;5045696;28;20333;-59
2023/12/16 07:46:09;;;;;;;7.85;3.05;;;;;;;;;;5051962;28;20045;-62
2023/12/16 07:49:49;;;;;;;6.10;2.20;;;;;;;;;;5055802;28;20076;-60
2023/12/16 07:53:31;;;;;;;5.32;2.42;;;;;;;;;;5048399;28;20461;-61
2023/12/16 07:57:14;;;;;;;7.75;2.60;;;;;;;;;;5051838;28;20056;-60
2023/12/16 08:00:55;;;;;;;6.65;2.53;;;;;;;;;;5056502;28;20059;-59
2023/12/16 08:04:41;;;;;;;5.78;2.78;;;;;;;;;;5056105;28;20041;-59
2023/12/16 08:08:22;;;;;;;5.25;2.03;;;;;;;;;;5052299;28;20097;-56
2023/12/16 08:12:02;;;;;;;4.88;1.80;;;;;;;;;;5055774;28;20050;-63
2023/12/16 08:15:43;;;;;;;3.47;1.83;;;;;;;;;;5058245;28;20048;-60
2023/12/16 08:19:23;;;;;;;2.78;1.40;;;;;;;;;;5054560;28;20111;-61
2023/12/16 08:23:05;;;;;;;5.80;1.80;;;;;;;;;;5055587;28;20118;-61
2023/12/16 08:26:43;;;;;;;5.10;1.40;;;;;;;;;;5053419;28;20355;-61
2023/12/16 08:30:27;;;;;;;5.95;1.45;;;;;;;;;;5037661;28;20514;-59
2023/12/16 08:34:07;;;;;;;4.00;1.38;;;;;;;;;;5035646;28;20053;-63
2023/12/16 08:37:48;;;;;;;3.92;1.30;;;;;;;;;;5042343;28;20377;-63
2023/12/16 08:41:31;;;;;;;3.75;1.45;;;;;;;;;;5052671;28;20810;-63
2023/12/16 08:45:11;;;;;;;6.53;1.70;;;;;;;;;;5056130;28;20140;-58
2023/12/16 08:48:53;;;;;;;5.65;1.20;;;;;;;;;;5052370;28;20409;-61
2023/12/16 08:52:32;;;;;;;3.10;1.60;;;;;;;;;;5053299;28;20312;-64
2023/12/16 08:56:18;;;;;;;10.40;1.77;;;;;;;;;;5050890;28;20053;-60
2023/12/16 08:59:55;;;;;;;3.38;1.60;;;;;;;;;;5055937;28;20074;-64
2023/12/16 09:03:36;;;;;;;5.22;1.70;;;;;;;;;;5056313;28;20040;-60
2023/12/16 09:06:41;;;;;;;6.40;1.90;;;;;;;;;;5053314;28;20559;-60
2023/12/16 09:09:47;;;;;;;4.68;1.60;;;;;;;;;;5054496;28;20060;-63
2023/12/16 09:13:27;;;;;;;4.82;1.70;;;;;;;;;;5060266;28;20136;-62
2023/12/16 09:17:10;;;;;;;4.47;1.73;;;;;;;;;;5061576;28;20036;-63
2023/12/16 09:20:51;;;;;;;3.70;1.80;;;;;;;;;;5058759;28;20518;-63
2023/12/16 09:24:33;;;;;;;5.28;1.80;;;;;;;;;;5063236;28;20067;-63
2023/12/16 09:28:11;;;;;;;5.05;1.88;;;;;;;;;;5056612;28;20055;-62
2023/12/16 09:31:52;;;;;;;2.70;1.70;;;;;;;;;;5055549;28;20371;-62
2023/12/16 09:35:33;;;;;;;10.98;1.70;;;;;;;;;;5056956;28;20385;-62
2023/12/16 09:39:14;;;;;;;6.00;2.28;;;;;;;;;;5056103;28;20054;-60
2023/12/16 09:42:54;;;;;;;4.35;1.70;;;;;;;;;;5058213;28;20060;-61
2023/12/16 09:46:34;;;;;;;4.70;2.03;;;;;;;;;;5057323;28;20049;-62
2023/12/16 09:50:15;;;;;;;6.18;2.00;;;;;;;;;;5055178;28;20141;-62
2023/12/16 09:53:55;;;;;;;2.55;1.73;;;;;;;;;;5058493;28;20524;-65
2023/12/16 09:57:36;;;;;;;3.50;2.00;;;;;;;;;;5056026;28;20049;-61
2023/12/16 10:01:17;;;;;;;7.50;2.30;;;;;;;;;;5052727;28;20425;-61
2023/12/16 10:04:56;;;;;;;4.68;1.98;;;;;;;;;;5059677;28;20133;-62
2023/12/16 10:08:38;;;;;;;3.40;1.98;;;;;;;;;;5062076;28;20630;-60
2023/12/16 10:12:18;;;;;;;4.65;2.00;;;;;;;;;;5054457;28;20056;-60
2023/12/16 10:16:05;;;;;;;7.25;2.50;;;;;;;;;;5060466;28;20048;-66
2023/12/16 10:19:11;;;;;;;8.60;2.00;;;;;;;;;;5059271;28;20475;-61
2023/12/16 10:22:52;;;;;;;8.27;2.13;;;;;;;;;;5059307;28;20059;-61
2023/12/16 10:26:33;;;;;;;4.75;1.95;;;;;;;;;;5057000;28;20063;-59
2023/12/16 10:30:15;;;;;;;3.50;2.17;;;;;;;;;;5057452;28;20180;-62
2023/12/16 10:33:56;;;;;;;10.77;2.60;;;;;;;;;;5059346;28;20447;-61
2023/12/16 10:37:43;;;;;;;3.55;2.00;;;;;;;;;;5057199;28;20052;-61
2023/12/16 10:41:23;;;;;;;8.30;1.83;;;;;;;;;;5054391;28;20060;-62
2023/12/16 10:45:04;;;;;;;5.30;2.65;;;;;;;;;;5063258;28;20135;-65
2023/12/16 10:48:44;;;;;;;4.32;1.65;;;;;;;;;;5053298;28;20050;-61
2023/12/16 10:52:27;;;;;;;3.28;1.90;;;;;;;;;;5053719;28;20617;-62
2023/12/16 10:56:08;;;;;;;3.00;1.60;;;;;;;;;;5058055;28;20040;-62
2023/12/16 10:59:54;;;;;;;5.35;1.50;;;;;;;;;;5062436;28;20036;-60
2023/12/16 11:03:43;;;;;;;8.63;2.30;;;;;;;;;;5056598;28;20048;-64
2023/12/16 11:07:36;;;;;;;3.72;1.30;;;;;;;;;;5053958;28;20066;-61
2023/12/16 11:11:16;;;;;;;3.17;1.50;;;;;;;;;;5053588;28;20049;-61
2023/12/16 11:14:57;;;;;;;6.45;1.75;;;;;;;;;;5066260;27;20110;-63
2023/12/16 11:18:39;;;;;;;2.60;1.00;;;;;;;;;;5063503;28;20052;-62
2023/12/16 11:22:19;;;;;;;2.85;1.20;;;;;;;;;;5061378;28;20049;-63
2023/12/16 11:25:59;;;;;;;6.32;1.25;;;;;;;;;;5060555;28;20071;-63
2023/12/16 11:29:39;;;;;;;2.10;1.33;;;;;;;;;;5065354;28;20109;-64
2023/12/16 11:33:20;;;;;;;2.92;1.00;;;;;;;;;;5060594;28;20064;-63
2023/12/16 11:37:06;;;;;;;1.48;0.90;;;;;;;;;;5060001;28;20199;-65
2023/12/16 11:41:01;;;;;;;2.28;1.40;;;;;;;;;;5059803;28;20048;-63
2023/12/16 11:44:42;;;;;;;3.28;1.08;;;;;;;;;;5065841;28;20062;-61
2023/12/16 11:48:22;;;;;;;0.95;0.77;;;;;;;;;;5061426;28;20075;-61
2023/12/16 11:52:02;;;;;;;2.15;1.17;;;;;;;;;;5069578;28;20449;-61
2023/12/16 11:55:45;;;;;;;5.47;2.63;;;;;;;;;;5062793;28;20464;-60
2023/12/16 11:59:26;;;;;;;3.92;1.20;;;;;;;;;;5053442;28;20199;-60
2023/12/16 12:03:06;;;;;;;9.93;1.55;;;;;;;;;;5059402;28;20037;-61
2023/12/16 12:06:47;;;;;;;2.90;0.77;;;;;;;;;;5064858;28;20466;-63
2023/12/16 12:10:28;;;;;;;5.28;1.08;;;;;;;;;;5064017;28;20121;-62
2023/12/16 12:14:08;;;;;;;3.53;1.30;;;;;;;;;;5066799;28;20451;-61
2023/12/16 12:17:49;;;;;;;1.58;0.80;;;;;;;;;;5060952;28;20036;-64
2023/12/16 12:21:32;;;;;;;1.70;0.98;;;;;;;;;;5057935;28;20037;-63
2023/12/16 12:25:13;;;;;;;1.55;0.80;;;;;;;;;;5058550;28;20626;-63
2023/12/16 12:28:54;;;;;;;1.75;0.80;;;;;;;;;;5053711;28;20360;-62
2023/12/16 12:32:35;;;;;;;3.28;1.13;;;;;;;;;;5058880;28;20063;-62
2023/12/16 12:36:15;;;;;;;2.65;0.90;;;;;;;;;;5054358;28;20041;-61
2023/12/16 12:39:55;;;;;;;3.72;1.40;;;;;;;;;;5056754;28;20045;-63
2023/12/16 12:43:36;;;;;;;4.97;1.17;;;;;;;;;;5064090;28;20418;-64
2023/12/16 12:47:16;;;;;;;3.67;0.90;;;;;;;;;;5057164;28;20402;-63
2023/12/16 12:51:00;;;;;;;2.92;1.20;;;;;;;;;;5062684;28;20044;-66
2023/12/16 12:54:41;;;;;;;9.05;1.55;;;;;;;;;;5057704;28;20102;-67
2023/12/16 12:58:24;;;;;;;3.22;1.45;;;;;;;;;;5057843;28;20455;-68
2023/12/16 13:02:04;;;;;;;6.32;1.45;;;;;;;;;;5069667;27;20052;-65
2023/12/16 13:05:44;;;;;;;2.72;1.17;;;;;;;;;;5065905;28;20051;-69
2023/12/16 13:09:25;;;;;;;3.80;1.52;;;;;;;;;;5059372;28;20060;-66
2023/12/16 13:13:05;;;;;;;5.03;1.52;;;;;;;;;;5060034;28;20053;-64
2023/12/16 13:16:48;;;;;;;6.22;1.60;;;;;;;;;;5062072;28;20129;-66
2023/12/16 13:20:28;;;;;;;5.60;1.77;;;;;;;;;;5057227;28;20395;-66
2023/12/16 13:24:08;;;;;;;4.35;1.10;;;;;;;;;;5054338;28;21125;-65
2023/12/16 13:27:49;;;;;;;4.85;1.98;;;;;;;;;;5058028;28;20051;-65
2023/12/16 13:31:31;;;;;;;3.97;1.50;;;;;;;;;;5057143;28;20076;-63
2023/12/16 13:35:12;;;;;;;4.95;1.55;;;;;;;;;;5061772;28;20416;-67
2023/12/16 13:38:54;;;;;;;4.13;1.13;;;;;;;;;;5057224;28;20044;-64
2023/12/16 13:42:33;;;;;;;5.60;3.38;;;;;;;;;;5057703;28;20068;-62
2023/12/16 13:46:13;;;;;;;6.50;3.17;;;;;;;;;;5052507;28;20097;-65
2023/12/16 13:49:54;;;;;;;7.38;2.65;;;;;;;;;;5056124;28;20059;-63
2023/12/16 13:53:34;;;;;;;4.30;1.80;;;;;;;;;;5056021;28;20068;-64
2023/12/16 13:57:16;;;;;;;4.55;1.50;;;;;;;;;;5057980;28;20110;-65
2023/12/16 14:00:57;;;;;;;7.95;3.60;;;;;;;;;;5058036;28;20528;-65
2023/12/16 14:04:38;;;;;;;4.70;1.75;;;;;;;;;;5059673;28;20041;-63
2023/12/16 14:08:17;;;;;;;4.88;1.60;;;;;;;;;;5056813;28;20063;-64
2023/12/16 14:11:57;;;;;;;3.50;1.55;;;;;;;;;;5055661;28;20048;-65
2023/12/16 14:15:38;;;;;;;7.07;2.08;;;;;;;;;;5056562;28;21435;-65
2023/12/16 14:19:18;;;;;;;6.22;1.77;;;;;;;;;;5058282;28;20492;-64
2023/12/16 14:22:58;;;;;;;3.72;1.70;;;;;;;;;;5054484;28;20063;-64
2023/12/16 14:26:40;;;;;;;7.22;1.80;;;;;;;;;;5057500;28;20140;-63
2023/12/16 14:30:21;;;;;;;6.25;2.05;;;;;;;;;;5053906;28;20057;-63
2023/12/16 14:34:01;;;;;;;2.83;1.20;;;;;;;;;;5052807;28;20795;-64
2023/12/16 14:37:41;;;;;;;3.67;1.42;;;;;;;;;;5059738;27;20052;-64
2023/12/16 14:41:22;;;;;;;5.95;1.90;;;;;;;;;;5050865;28;20045;-66
2023/12/16 14:45:02;;;;;;;7.32;1.80;;;;;;;;;;5054579;28;20135;-64
2023/12/16 14:48:47;;;;;;;2.42;1.33;;;;;;;;;;5059219;28;20044;-67
2023/12/16 14:52:29;;;;;;;4.85;1.90;;;;;;;;;;5055421;28;20071;-64
2023/12/16 14:56:09;;;;;;;3.85;1.30;;;;;;;;;;5060017;28;20555;-66
2023/12/16 14:59:49;;;;;;;3.30;1.38;;;;;;;;;;5058992;28;20044;-65
2023/12/16 15:03:30;;;;;;;7.47;1.63;;;;;;;;;;5055568;28;20044;-67
2023/12/16 15:07:10;;;;;;;2.33;1.38;;;;;;;;;;5060459;28;20036;-65
2023/12/16 15:10:51;;;;;;;3.17;1.38;;;;;;;;;;5059256;28;20053;-64
2023/12/16 15:14:31;;;;;;;4.90;1.60;;;;;;;;;;5051940;28;20067;-64
2023/12/16 15:18:11;;;;;;;4.70;1.45;;;;;;;;;;5060465;28;20480;-66
2023/12/16 15:21:53;;;;;;;6.47;1.48;;;;;;;;;;5060531;28;20452;-64
2023/12/16 15:25:33;;;;;;;4.20;1.30;;;;;;;;;;5057422;28;20056;-67
2023/12/16 15:29:13;;;;;;;2.97;1.35;;;;;;;;;;5061582;28;20452;-65
2023/12/16 15:32:54;;;;;;;3.00;1.25;;;;;;;;;;5051504;28;20053;-65
2023/12/16 15:36:35;;;;;;;4.20;1.30;;;;;;;;;;5050661;28;20074;-65
2023/12/16 15:40:16;;;;;;;5.20;1.50;;;;;;;;;;5058060;28;20063;-67
2023/12/16 15:43:56;;;;;;;5.88;1.85;;;;;;;;;;5057296;28;20047;-67
2023/12/16 15:47:37;;;;;;;4.97;1.88;;;;;;;;;;5061535;28;20050;-67
2023/12/16 15:51:17;;;;;;;2.35;1.42;;;;;;;;;;5061259;28;20040;-65
2023/12/16 15:54:57;;;;;;;4.20;1.25;;;;;;;;;;5056426;28;20048;-65
2023/12/16 15:58:40;;;;;;;5.20;1.70;;;;;;;;;;5062454;28;20052;-66
2023/12/16 16:02:19;;;;;;;4.25;1.77;;;;;;;;;;5058855;28;20056;-62
2023/12/16 16:06:00;;;;;;;4.30;1.35;;;;;;;;;;5060755;28;20044;-65
2023/12/16 16:09:40;;;;;;;3.55;1.17;;;;;;;;;;5062454;28;20416;-64
2023/12/16 16:13:21;;;;;;;3.05;1.13;;;;;;;;;;5056637;28;20091;-64
2023/12/16 16:17:02;;;;;;;5.65;1.25;;;;;;;;;;5059194;28;20048;-66
2023/12/16 16:20:42;;;;;;;11.35;1.58;;;;;;;;;;5063501;28;20040;-66
2023/12/16 16:24:23;;;;;;;5.95;1.30;;;;;;;;;;5064776;28;20502;-65
2023/12/16 16:28:06;;;;;;;5.03;1.50;;;;;;;;;;5056843;28;20083;-65
2023/12/16 16:31:44;;;;;;;4.13;1.80;;;;;;;;;;5061703;28;20052;-67
2023/12/16 16:35:25;;;;;;;7.20;1.13;;;;;;;;;;5058795;28;20095;-64
2023/12/16 16:39:07;;;;;;;2.67;1.50;;;;;;;;;;5067350;28;20479;-65
2023/12/16 16:42:47;;;;;;;4.18;1.38;;;;;;;;;;5056116;28;20102;-65
2023/12/16 16:46:28;;;;;;;9.48;1.10;;;;;;;;;;5056126;28;20048;-65
2023/12/16 16:50:08;;;;;;;3.80;1.50;;;;;;;;;;5066877;28;20054;-63
2023/12/16 16:53:50;;;;;;;5.40;1.90;;;;;;;;;;5062400;28;20056;-66
2023/12/16 16:57:31;;;;;;;10.63;2.05;;;;;;;;;;5060915;28;20155;-62
2023/12/16 17:01:10;;;;;;;11.43;2.90;;;;;;;;;;5057975;28;20509;-64
2023/12/16 17:04:52;;;;;;;5.93;2.03;;;;;;;;;;5062831;28;20047;-63
2023/12/16 17:08:31;;;;;;;4.85;1.83;;;;;;;;;;5056652;28;20407;-64
2023/12/16 17:12:11;;;;;;;8.32;2.00;;;;;;;;;;5060533;28;20057;-65
2023/12/16 17:15:52;;;;;;;5.53;2.03;;;;;;;;;;5063207;28;20110;-64
2023/12/16 17:19:32;;;;;;;4.88;2.17;;;;;;;;;;5057462;28;20044;-64
2023/12/16 17:23:13;;;;;;;7.60;2.10;;;;;;;;;;5067862;28;20036;-65
2023/12/16 17:26:53;;;;;;;8.43;2.90;;;;;;;;;;5053871;28;20075;-65
2023/12/16 17:30:36;;;;;;;10.85;2.92;;;;;;;;;;5052875;28;20057;-61
2023/12/16 17:34:16;;;;;;;5.63;1.77;;;;;;;;;;5060829;28;20403;-61
2023/12/16 17:37:56;;;;;;;5.43;2.03;;;;;;;;;;5053651;28;20059;-64
2023/12/16 17:41:37;;;;;;;5.90;1.90;;;;;;;;;;5053104;28;20052;-62
2023/12/16 17:45:17;;;;;;;4.07;1.80;;;;;;;;;;5045154;28;20465;-65
2023/12/16 17:48:59;;;;;;;2.70;1.70;;;;;;;;;;5057374;28;20083;-63
2023/12/16 17:52:40;;;;;;;3.92;2.00;;;;;;;;;;5053922;28;20036;-63
2023/12/16 17:56:21;;;;;;;10.48;2.50;;;;;;;;;;5058551;28;20192;-67
2023/12/16 17:59:25;;;;;;;11.45;1.90;;;;;;;;;;5054093;28;20458;-65
2023/12/16 18:01:51;;;;;;;6.22;2.15;;;;;;;;;;5056442;28;20596;-64
2023/12/16 18:04:19;;;;;;;11.07;2.30;;;;;;;;;;5067242;28;20057;-66